Terminal Aerodrome Forecast
Issued by NWS Austin/San Antonio, TX

Home | Current Version | Previous Version | Text Only | Print | Product List | Glossary On
Versions: 1 2 3 4 5 6 7 8 9 10 11 12 13 14 15
473
FTUS44 KEWX 260526
TAFSAT
TAF
KSAT 260526Z 2606/2712 VRB04KT P6SM FEW250
     FM261200 11004KT 5SM BR OVC025
     FM261500 15007KT 5SM BR VCSH OVC010
     FM270000 14005KT 4SM BR OVC007
     FM270500 14004KT 2SM BR OVC004=

USA.gov is the U.S. government's official web portal to all federal, state and local government web resources and services.